sensor_id;sensor_type;location;lat;lon;timestamp;pressure;altitude;pressure_sealevel;temperature;humidity
6343;BME280;3204;42.698;23.298;2023-04-20T00:02:25;94543.00;;;11.70;76.03
6343;BME280;3204;42.698;23.298;2023-04-20T00:04:51;94542.00;;;11.74;75.64
6343;BME280;3204;42.698;23.298;2023-04-20T00:07:16;94545.41;;;11.71;75.17
6343;BME280;3204;42.698;23.298;2023-04-20T00:09:42;94540.91;;;11.67;75.19
6343;BME280;3204;42.698;23.298;2023-04-20T00:12:07;94535.81;;;11.65;74.66
6343;BME280;3204;42.698;23.298;2023-04-20T00:14:33;94536.00;;;11.60;74.36
6343;BME280;3204;42.698;23.298;2023-04-20T00:16:58;94539.97;;;11.63;74.53
6343;BME280;3204;42.698;23.298;2023-04-20T00:19:24;94536.78;;;11.61;74.81
6343;BME280;3204;42.698;23.298;2023-04-20T00:21:52;94534.09;;;11.61;74.84
6343;BME280;3204;42.698;23.298;2023-04-20T00:24:17;94538.72;;;11.60;74.68
6343;BME280;3204;42.698;23.298;2023-04-20T00:26:43;94532.63;;;11.55;74.80
6343;BME280;3204;42.698;23.298;2023-04-20T00:29:09;94531.50;;;11.56;74.71
6343;BME280;3204;42.698;23.298;2023-04-20T00:31:34;94536.00;;;11.60;74.59
6343;BME280;3204;42.698;23.298;2023-04-20T00:34:00;94529.56;;;11.56;74.50
6343;BME280;3204;42.698;23.298;2023-04-20T00:36:25;94527.97;;;11.64;74.35
6343;BME280;3204;42.698;23.298;2023-04-20T00:38:51;94530.19;;;11.70;73.49
6343;BME280;3204;42.698;23.298;2023-04-20T00:41:17;94538.66;;;11.69;73.40
6343;BME280;3204;42.698;23.298;2023-04-20T00:43:50;94534.03;;;11.69;73.95
6343;BME280;3204;42.698;23.298;2023-04-20T00:46:15;94523.81;;;11.58;74.48
6343;BME280;3204;42.698;23.298;2023-04-20T00:48:41;94533.56;;;11.59;74.35
6343;BME280;3204;42.698;23.298;2023-04-20T00:51:07;94535.78;;;11.74;74.20
6343;BME280;3204;42.698;23.298;2023-04-20T00:53:33;94537.06;;;11.68;74.29
6343;BME280;3204;42.698;23.298;2023-04-20T00:55:59;94531.94;;;11.75;74.04
6343;BME280;3204;42.698;23.298;2023-04-20T00:58:25;94532.47;;;11.51;74.72
6343;BME280;3204;42.698;23.298;2023-04-20T01:00:50;94528.31;;;11.54;75.27
6343;BME280;3204;42.698;23.298;2023-04-20T01:03:16;94529.16;;;11.46;75.30
6343;BME280;3204;42.698;23.298;2023-04-20T01:05:42;94519.88;;;11.47;75.01
6343;BME280;3204;42.698;23.298;2023-04-20T01:08:07;94521.78;;;11.46;75.29
6343;BME280;3204;42.698;23.298;2023-04-20T01:10:32;94521.19;;;11.41;75.67
6343;BME280;3204;42.698;23.298;2023-04-20T01:12:58;94521.19;;;11.32;75.69
6343;BME280;3204;42.698;23.298;2023-04-20T01:15:23;94531.94;;;11.20;76.33
6343;BME280;3204;42.698;23.298;2023-04-20T01:17:48;94521.56;;;11.14;76.88
6343;BME280;3204;42.698;23.298;2023-04-20T01:20:14;94524.44;;;11.09;76.80
6343;BME280;3204;42.698;23.298;2023-04-20T01:22:48;94522.84;;;11.08;76.61
6343;BME280;3204;42.698;23.298;2023-04-20T01:25:14;94531.44;;;11.27;76.14
6343;BME280;3204;42.698;23.298;2023-04-20T01:27:40;94525.06;;;11.23;76.40
6343;BME280;3204;42.698;23.298;2023-04-20T01:30:06;94522.50;;;11.18;76.51
6343;BME280;3204;42.698;23.298;2023-04-20T01:32:31;94512.53;;;11.39;76.18
6343;BME280;3204;42.698;23.298;2023-04-20T01:34:57;94515.16;;;11.27;76.21
6343;BME280;3204;42.698;23.298;2023-04-20T01:37:22;94510.19;;;11.29;76.56
6343;BME280;3204;42.698;23.298;2023-04-20T01:39:48;94512.25;;;11.32;77.09
6343;BME280;3204;42.698;23.298;2023-04-20T01:42:13;94511.16;;;11.24;76.89
6343;BME280;3204;42.698;23.298;2023-04-20T01:44:39;94503.34;;;11.23;76.79
6343;BME280;3204;42.698;23.298;2023-04-20T01:47:04;94507.94;;;11.31;77.09
6343;BME280;3204;42.698;23.298;2023-04-20T01:49:30;94496.94;;;11.27;76.94
6343;BME280;3204;42.698;23.298;2023-04-20T01:51:55;94488.78;;;11.27;76.80
6343;BME280;3204;42.698;23.298;2023-04-20T01:54:21;94499.00;;;11.30;77.10
6343;BME280;3204;42.698;23.298;2023-04-20T01:56:47;94492.94;;;11.25;77.26
6343;BME280;3204;42.698;23.298;2023-04-20T01:59:12;94497.41;;;11.21;77.59
6343;BME280;3204;42.698;23.298;2023-04-20T02:01:38;94497.59;;;11.16;77.42
6343;BME280;3204;42.698;23.298;2023-04-20T02:04:03;94493.63;;;11.22;76.97
6343;BME280;3204;42.698;23.298;2023-04-20T02:06:29;94492.94;;;11.25;77.04
6343;BME280;3204;42.698;23.298;2023-04-20T02:08:56;94491.66;;;11.22;77.07
6343;BME280;3204;42.698;23.298;2023-04-20T02:11:21;94498.22;;;11.21;76.51
6343;BME280;3204;42.698;23.298;2023-04-20T02:13:46;94501.56;;;11.18;76.87
6343;BME280;3204;42.698;23.298;2023-04-20T02:16:12;94489.94;;;11.18;77.37
6343;BME280;3204;42.698;23.298;2023-04-20T02:18:37;94493.13;;;11.20;77.36
6343;BME280;3204;42.698;23.298;2023-04-20T02:21:04;94490.09;;;11.21;76.89
6343;BME280;3204;42.698;23.298;2023-04-20T02:23:30;94497.91;;;11.23;77.21
6343;BME280;3204;42.698;23.298;2023-04-20T02:25:55;94493.13;;;11.20;77.44
6343;BME280;3204;42.698;23.298;2023-04-20T02:28:20;94494.88;;;11.24;77.27
6343;BME280;3204;42.698;23.298;2023-04-20T02:30:46;94495.50;;;11.21;77.45
6343;BME280;3204;42.698;23.298;2023-04-20T02:33:11;94496.16;;;11.18;77.48
6343;BME280;3204;42.698;23.298;2023-04-20T02:35:37;94506.00;;;11.40;76.03
6343;BME280;3204;42.698;23.298;2023-04-20T02:38:03;94497.44;;;11.12;76.77
6343;BME280;3204;42.698;23.298;2023-04-20T02:40:28;94502.41;;;11.02;77.65
6343;BME280;3204;42.698;23.298;2023-04-20T02:42:54;94492.22;;;10.99;77.58
6343;BME280;3204;42.698;23.298;2023-04-20T02:45:20;94494.75;;;11.04;77.72
6343;BME280;3204;42.698;23.298;2023-04-20T02:47:45;94500.66;;;11.06;77.69
6343;BME280;3204;42.698;23.298;2023-04-20T02:50:11;94496.66;;;11.03;77.83
6343;BME280;3204;42.698;23.298;2023-04-20T02:52:37;94496.63;;;11.12;77.23
6343;BME280;3204;42.698;23.298;2023-04-20T02:55:02;94492.16;;;11.16;77.18
6343;BME280;3204;42.698;23.298;2023-04-20T02:57:28;94494.72;;;11.21;77.35
6343;BME280;3204;42.698;23.298;2023-04-20T02:59:53;94503.03;;;11.16;77.26
6343;BME280;3204;42.698;23.298;2023-04-20T03:02:19;94496.19;;;11.10;77.48
6343;BME280;3204;42.698;23.298;2023-04-20T03:04:44;94493.16;;;11.11;77.60
6343;BME280;3204;42.698;23.298;2023-04-20T03:07:10;94499.03;;;11.13;77.43
6343;BME280;3204;42.698;23.298;2023-04-20T03:09:35;94499.69;;;11.19;77.33
6343;BME280;3204;42.698;23.298;2023-04-20T03:12:02;94496.66;;;11.20;77.55
6343;BME280;3204;42.698;23.298;2023-04-20T03:14:28;94489.28;;;11.21;76.83
6343;BME280;3204;42.698;23.298;2023-04-20T03:16:53;94492.97;;;11.16;76.78
6343;BME280;3204;42.698;23.298;2023-04-20T03:19:18;94486.75;;;11.16;76.68
6343;BME280;3204;42.698;23.298;2023-04-20T03:21:44;94494.25;;;11.19;76.73
6343;BME280;3204;42.698;23.298;2023-04-20T03:24:10;94482.16;;;11.08;76.77
6343;BME280;3204;42.698;23.298;2023-04-20T03:26:35;94489.13;;;11.17;76.84
6343;BME280;3204;42.698;23.298;2023-04-20T03:29:01;94493.94;;;11.12;76.76
6343;BME280;3204;42.698;23.298;2023-04-20T03:31:26;94498.25;;;11.13;76.77
6343;BME280;3204;42.698;23.298;2023-04-20T03:33:52;94499.34;;;11.12;77.00
6343;BME280;3204;42.698;23.298;2023-04-20T03:36:18;94501.91;;;11.25;77.02
6343;BME280;3204;42.698;23.298;2023-04-20T03:38:43;94490.41;;;11.20;76.77
6343;BME280;3204;42.698;23.298;2023-04-20T03:41:09;94496.31;;;11.22;76.86
6343;BME280;3204;42.698;23.298;2023-04-20T03:43:34;94499.22;;;11.17;76.86
6343;BME280;3204;42.698;23.298;2023-04-20T03:46:00;94496.16;;;11.18;76.32
6343;BME280;3204;42.698;23.298;2023-04-20T03:48:25;94492.00;;;11.21;76.52
6343;BME280;3204;42.698;23.298;2023-04-20T03:50:51;94497.25;;;11.26;76.54
6343;BME280;3204;42.698;23.298;2023-04-20T03:53:16;94500.91;;;11.30;76.52
6343;BME280;3204;42.698;23.298;2023-04-20T03:55:41;94505.06;;;11.27;76.42
6343;BME280;3204;42.698;23.298;2023-04-20T03:58:07;94500.28;;;11.33;76.08
6343;BME280;3204;42.698;23.298;2023-04-20T04:00:33;94498.34;;;11.33;75.89
6343;BME280;3204;42.698;23.298;2023-04-20T04:03:00;94509.88;;;11.30;76.20
6343;BME280;3204;42.698;23.298;2023-04-20T04:05:26;94504.22;;;11.44;76.31
6343;BME280;3204;42.698;23.298;2023-04-20T04:07:51;94508.88;;;11.35;76.33
6343;BME280;3204;42.698;23.298;2023-04-20T04:10:17;94512.25;;;11.32;76.19
6343;BME280;3204;42.698;23.298;2023-04-20T04:12:43;94507.78;;;11.36;76.29
6343;BME280;3204;42.698;23.298;2023-04-20T04:15:09;94515.44;;;11.34;76.10
6343;BME280;3204;42.698;23.298;2023-04-20T04:17:35;94514.97;;;11.23;76.44
6343;BME280;3204;42.698;23.298;2023-04-20T04:20:00;94510.34;;;11.24;76.31
6343;BME280;3204;42.698;23.298;2023-04-20T04:22:26;94518.16;;;11.34;76.27
6343;BME280;3204;42.698;23.298;2023-04-20T04:24:51;94516.06;;;11.39;76.15
6343;BME280;3204;42.698;23.298;2023-04-20T04:27:18;94507.78;;;11.27;76.43
6343;BME280;3204;42.698;23.298;2023-04-20T04:29:45;94507.63;;;11.24;76.72
6343;BME280;3204;42.698;23.298;2023-04-20T04:32:10;94523.13;;;11.23;76.50
6343;BME280;3204;42.698;23.298;2023-04-20T04:34:36;94512.59;;;11.30;76.30
6343;BME280;3204;42.698;23.298;2023-04-20T04:37:02;94527.53;;;11.45;75.61
6343;BME280;3204;42.698;23.298;2023-04-20T04:39:28;94526.78;;;11.36;75.77
6343;BME280;3204;42.698;23.298;2023-04-20T04:41:54;94519.91;;;11.30;76.18
6343;BME280;3204;42.698;23.298;2023-04-20T04:44:20;94528.38;;;11.28;76.20
6343;BME280;3204;42.698;23.298;2023-04-20T04:46:46;94522.00;;;11.33;76.30
6343;BME280;3204;42.698;23.298;2023-04-20T04:49:12;94514.81;;;11.28;75.90
6343;BME280;3204;42.698;23.298;2023-04-20T04:51:38;94528.84;;;11.39;76.35
6343;BME280;3204;42.698;23.298;2023-04-20T04:54:03;94528.81;;;11.56;76.16
6343;BME280;3204;42.698;23.298;2023-04-20T04:56:30;94537.13;;;11.51;75.72
6343;BME280;3204;42.698;23.298;2023-04-20T04:58:55;94529.94;;;11.46;75.78
6343;BME280;3204;42.698;23.298;2023-04-20T05:01:21;94536.81;;;11.52;75.45
6343;BME280;3204;42.698;23.298;2023-04-20T05:03:46;94546.22;;;11.63;75.28
6343;BME280;3204;42.698;23.298;2023-04-20T05:06:12;94546.22;;;11.63;75.16
6343;BME280;3204;42.698;23.298;2023-04-20T05:08:37;94546.06;;;11.60;75.19
6343;BME280;3204;42.698;23.298;2023-04-20T05:11:03;94543.66;;;11.58;74.76
6343;BME280;3204;42.698;23.298;2023-04-20T05:13:28;94549.41;;;11.65;75.09
6343;BME280;3204;42.698;23.298;2023-04-20T05:15:53;94538.38;;;11.62;74.74
6343;BME280;3204;42.698;23.298;2023-04-20T05:18:19;94548.63;;;11.65;74.59
6343;BME280;3204;42.698;23.298;2023-04-20T05:20:44;94546.03;;;11.68;74.49
6343;BME280;3204;42.698;23.298;2023-04-20T05:23:10;94553.69;;;11.75;74.24
6343;BME280;3204;42.698;23.298;2023-04-20T05:25:35;94546.66;;;11.74;74.07
6343;BME280;3204;42.698;23.298;2023-04-20T05:28:01;94555.28;;;11.76;74.18
6343;BME280;3204;42.698;23.298;2023-04-20T05:30:26;94552.25;;;11.77;74.15
6343;BME280;3204;42.698;23.298;2023-04-20T05:32:52;94549.66;;;11.81;74.18
6343;BME280;3204;42.698;23.298;2023-04-20T05:35:17;94558.44;;;11.78;74.63
6343;BME280;3204;42.698;23.298;2023-04-20T05:37:42;94553.03;;;11.78;74.63
6343;BME280;3204;42.698;23.298;2023-04-20T05:40:08;94556.38;;;11.83;74.73
6343;BME280;3204;42.698;23.298;2023-04-20T05:42:34;94552.38;;;11.81;74.50
6343;BME280;3204;42.698;23.298;2023-04-20T05:44:59;94559.41;;;11.82;74.38
6343;BME280;3204;42.698;23.298;2023-04-20T05:47:25;94555.56;;;11.83;74.48
6343;BME280;3204;42.698;23.298;2023-04-20T05:49:52;94559.72;;;11.89;74.32
6343;BME280;3204;42.698;23.298;2023-04-20T05:52:17;94556.81;;;11.94;74.10
6343;BME280;3204;42.698;23.298;2023-04-20T05:54:43;94559.84;;;11.92;74.63
6343;BME280;3204;42.698;23.298;2023-04-20T05:57:08;94560.16;;;11.91;74.69
6343;BME280;3204;42.698;23.298;2023-04-20T05:59:34;94551.81;;;11.96;74.56
6343;BME280;3204;42.698;23.298;2023-04-20T06:02:00;94563.19;;;11.98;75.11
6343;BME280;3204;42.698;23.298;2023-04-20T06:04:25;94560.47;;;11.89;75.89
6343;BME280;3204;42.698;23.298;2023-04-20T06:06:51;94550.44;;;11.90;76.49
6343;BME280;3204;42.698;23.298;2023-04-20T06:09:17;94546.56;;;11.91;77.21
6343;BME280;3204;42.698;23.298;2023-04-20T06:11:42;94549.09;;;11.96;77.32
6343;BME280;3204;42.698;23.298;2023-04-20T06:14:07;94555.03;;;11.98;77.65
6343;BME280;3204;42.698;23.298;2023-04-20T06:16:36;94551.81;;;11.96;77.94
6343;BME280;3204;42.698;23.298;2023-04-20T06:19:02;94553.72;;;12.04;81.18
6343;BME280;3204;42.698;23.298;2023-04-20T06:21:27;94556.88;;;12.14;77.40
6343;BME280;3204;42.698;23.298;2023-04-20T06:23:52;94565.16;;;12.18;76.67
6343;BME280;3204;42.698;23.298;2023-04-20T06:26:18;94559.25;;;12.16;76.49
6343;BME280;3204;42.698;23.298;2023-04-20T06:28:43;94560.84;;;12.17;76.77
6343;BME280;3204;42.698;23.298;2023-04-20T06:31:09;94554.94;;;12.15;76.80
6343;BME280;3204;42.698;23.298;2023-04-20T06:33:35;94561.00;;;12.20;76.08
6343;BME280;3204;42.698;23.298;2023-04-20T06:36:01;94560.38;;;12.15;76.25
6343;BME280;3204;42.698;23.298;2023-04-20T06:38:26;94568.53;;;12.15;76.95
6343;BME280;3204;42.698;23.298;2023-04-20T06:40:52;94575.03;;;12.22;76.03
6343;BME280;3204;42.698;23.298;2023-04-20T06:43:17;94564.22;;;12.14;76.37
6343;BME280;3204;42.698;23.298;2023-04-20T06:45:43;94573.19;;;12.14;76.59
6343;BME280;3204;42.698;23.298;2023-04-20T06:48:08;94581.75;;;12.25;75.71
6343;BME280;3204;42.698;23.298;2023-04-20T06:50:33;94573.50;;;12.13;76.98
6343;BME280;3204;42.698;23.298;2023-04-20T06:53:01;94578.44;;;12.11;77.77
6343;BME280;3204;42.698;23.298;2023-04-20T06:55:27;94575.28;;;12.09;77.88
6343;BME280;3204;42.698;23.298;2023-04-20T06:57:52;94580.91;;;12.04;78.30
6343;BME280;3204;42.698;23.298;2023-04-20T07:00:18;94579.63;;;12.01;78.17
6343;BME280;3204;42.698;23.298;2023-04-20T07:02:45;94584.94;;;11.98;78.12
6343;BME280;3204;42.698;23.298;2023-04-20T07:05:11;94579.63;;;12.01;79.20
6343;BME280;3204;42.698;23.298;2023-04-20T07:07:37;94578.63;;;12.06;80.01
6343;BME280;3204;42.698;23.298;2023-04-20T07:10:02;94589.31;;;12.11;79.98
6343;BME280;3204;42.698;23.298;2023-04-20T07:12:28;94585.66;;;12.15;80.09
6343;BME280;3204;42.698;23.298;2023-04-20T07:14:53;94579.34;;;12.23;80.16
6343;BME280;3204;42.698;23.298;2023-04-20T07:17:19;94585.28;;;12.25;79.91
6343;BME280;3204;42.698;23.298;2023-04-20T07:19:45;94581.03;;;12.36;80.00
6343;BME280;3204;42.698;23.298;2023-04-20T07:22:10;94589.91;;;12.54;79.83
6343;BME280;3204;42.698;23.298;2023-04-20T07:24:36;94591.13;;;12.65;79.39
6343;BME280;3204;42.698;23.298;2023-04-20T07:27:01;94590.59;;;12.71;78.58
6343;BME280;3204;42.698;23.298;2023-04-20T07:29:27;94585.75;;;12.77;78.08
6343;BME280;3204;42.698;23.298;2023-04-20T07:31:52;94582.78;;;12.90;77.78
6343;BME280;3204;42.698;23.298;2023-04-20T07:34:17;94577.34;;;13.11;77.47
6343;BME280;3204;42.698;23.298;2023-04-20T07:36:43;94588.19;;;13.19;77.22
6343;BME280;3204;42.698;23.298;2023-04-20T07:39:08;94588.81;;;13.37;76.07
6343;BME280;3204;42.698;23.298;2023-04-20T07:41:35;94574.72;;;13.35;74.57
6343;BME280;3204;42.698;23.298;2023-04-20T07:44:00;94597.50;;;13.51;72.71
6343;BME280;3204;42.698;23.298;2023-04-20T07:46:26;94589.84;;;13.77;73.29
6343;BME280;3204;42.698;23.298;2023-04-20T07:48:52;94591.38;;;14.10;72.09
6343;BME280;3204;42.698;23.298;2023-04-20T07:51:18;94589.97;;;14.37;70.67
6343;BME280;3204;42.698;23.298;2023-04-20T07:53:43;94589.28;;;14.52;69.18
6343;BME280;3204;42.698;23.298;2023-04-20T07:56:09;94584.13;;;14.74;69.90
6343;BME280;3204;42.698;23.298;2023-04-20T07:58:34;94586.63;;;14.91;67.69
6343;BME280;3204;42.698;23.298;2023-04-20T08:01:02;94586.47;;;15.00;67.07
6343;BME280;3204;42.698;23.298;2023-04-20T08:03:28;94584.25;;;15.17;66.71
6343;BME280;3204;42.698;23.298;2023-04-20T08:05:53;94587.31;;;15.28;66.11
6343;BME280;3204;42.698;23.298;2023-04-20T08:08:19;94594.59;;;15.36;65.79
6343;BME280;3204;42.698;23.298;2023-04-20T08:10:44;94586.41;;;15.36;64.87
6343;BME280;3204;42.698;23.298;2023-04-20T08:13:10;94601.69;;;15.25;65.26
6343;BME280;3204;42.698;23.298;2023-04-20T08:15:36;94601.25;;;15.11;65.04
6343;BME280;3204;42.698;23.298;2023-04-20T08:18:01;94604.72;;;14.84;66.10
6343;BME280;3204;42.698;23.298;2023-04-20T08:20:27;94594.59;;;14.72;65.86
6343;BME280;3204;42.698;23.298;2023-04-20T08:22:52;94588.94;;;14.53;67.05
6343;BME280;3204;42.698;23.298;2023-04-20T08:25:18;94598.16;;;14.49;67.43
6343;BME280;3204;42.698;23.298;2023-04-20T08:27:43;94591.47;;;14.46;67.30
6343;BME280;3204;42.698;23.298;2023-04-20T08:30:09;94597.91;;;14.42;67.79
6343;BME280;3204;42.698;23.298;2023-04-20T08:32:35;94596.09;;;14.34;67.37
6343;BME280;3204;42.698;23.298;2023-04-20T08:35:00;94591.47;;;14.46;67.12
6343;BME280;3204;42.698;23.298;2023-04-20T08:37:26;94592.09;;;14.31;67.17
6343;BME280;3204;42.698;23.298;2023-04-20T08:39:52;94594.16;;;14.22;67.28
6343;BME280;3204;42.698;23.298;2023-04-20T08:42:17;94599.47;;;14.07;68.11
6343;BME280;3204;42.698;23.298;2023-04-20T08:44:43;94597.66;;;14.11;67.92
6343;BME280;3204;42.698;23.298;2023-04-20T08:47:09;94602.53;;;14.17;67.48
6343;BME280;3204;42.698;23.298;2023-04-20T08:49:37;94597.41;;;14.04;67.83
6343;BME280;3204;42.698;23.298;2023-04-20T08:52:04;94600.38;;;14.11;67.29
6343;BME280;3204;42.698;23.298;2023-04-20T08:54:30;94596.75;;;14.07;67.25
6343;BME280;3204;42.698;23.298;2023-04-20T08:56:56;94596.25;;;14.05;67.78
6343;BME280;3204;42.698;23.298;2023-04-20T08:59:22;94603.09;;;14.11;67.94
6343;BME280;3204;42.698;23.298;2023-04-20T09:01:48;94599.41;;;14.27;67.84
6343;BME280;3204;42.698;23.298;2023-04-20T09:04:23;94588.09;;;14.17;67.24
6343;BME280;3204;42.698;23.298;2023-04-20T09:06:52;94599.69;;;14.14;67.36
6343;BME280;3204;42.698;23.298;2023-04-20T09:09:19;94605.19;;;14.26;66.82
6343;BME280;3204;42.698;23.298;2023-04-20T09:11:45;94599.59;;;14.22;66.88
6343;BME280;3204;42.698;23.298;2023-04-20T09:14:13;94605.41;;;14.21;67.42
6343;BME280;3204;42.698;23.298;2023-04-20T09:16:52;94601.72;;;14.05;67.67
6343;BME280;3204;42.698;23.298;2023-04-20T09:19:22;94592.94;;;13.75;68.01
6343;BME280;3204;42.698;23.298;2023-04-20T09:21:50;94589.97;;;13.80;68.36
6343;BME280;3204;42.698;23.298;2023-04-20T09:24:15;94589.00;;;13.97;67.93
6343;BME280;3204;42.698;23.298;2023-04-20T09:26:41;94583.78;;;14.16;67.66
6343;BME280;3204;42.698;23.298;2023-04-20T09:29:18;94581.78;;;14.37;66.68
6343;BME280;3204;42.698;23.298;2023-04-20T09:31:44;94581.91;;;14.52;67.15
6343;BME280;3204;42.698;23.298;2023-04-20T09:34:09;94575.63;;;14.64;66.99
6343;BME280;3204;42.698;23.298;2023-04-20T09:36:39;94576.72;;;14.87;66.17
6343;BME280;3204;42.698;23.298;2023-04-20T09:39:09;94587.59;;;15.11;65.99
6343;BME280;3204;42.698;23.298;2023-04-20T09:41:35;94580.34;;;15.30;65.15
6343;BME280;3204;42.698;23.298;2023-04-20T09:44:01;94580.41;;;15.58;63.55
6343;BME280;3204;42.698;23.298;2023-04-20T09:46:29;94583.88;;;15.70;63.47
6343;BME280;3204;42.698;23.298;2023-04-20T09:48:59;94588.22;;;15.87;62.64
6343;BME280;3204;42.698;23.298;2023-04-20T09:51:26;94591.59;;;15.96;63.00
6343;BME280;3204;42.698;23.298;2023-04-20T09:53:54;94582.09;;;16.21;62.47
6343;BME280;3204;42.698;23.298;2023-04-20T09:56:20;94581.13;;;16.29;61.54
6343;BME280;3204;42.698;23.298;2023-04-20T09:58:46;94579.19;;;16.45;62.04
6343;BME280;3204;42.698;23.298;2023-04-20T10:01:12;94571.66;;;16.58;60.96
6343;BME280;3204;42.698;23.298;2023-04-20T10:03:40;94571.59;;;16.54;61.19
6343;BME280;3204;42.698;23.298;2023-04-20T10:06:17;94567.34;;;16.57;61.28
6343;BME280;3204;42.698;23.298;2023-04-20T10:08:43;94570.06;;;16.72;60.92
6343;BME280;3204;42.698;23.298;2023-04-20T10:11:08;94562.34;;;17.12;59.74
6343;BME280;3204;42.698;23.298;2023-04-20T10:13:36;94562.69;;;17.64;59.87
6343;BME280;3204;42.698;23.298;2023-04-20T10:16:01;94551.88;;;17.94;57.67
6343;BME280;3204;42.698;23.298;2023-04-20T10:18:27;94548.66;;;17.88;57.82
6343;BME280;3204;42.698;23.298;2023-04-20T10:21:04;94551.53;;;17.95;56.96
6343;BME280;3204;42.698;23.298;2023-04-20T10:23:31;94558.81;;;17.88;56.63
6343;BME280;3204;42.698;23.298;2023-04-20T10:25:57;94550.53;;;17.84;56.67
6343;BME280;3204;42.698;23.298;2023-04-20T10:28:25;94541.59;;;17.68;57.50
6343;BME280;3204;42.698;23.298;2023-04-20T10:31:04;94546.63;;;17.85;57.10
6343;BME280;3204;42.698;23.298;2023-04-20T10:33:31;94542.31;;;18.07;57.21
6343;BME280;3204;42.698;23.298;2023-04-20T10:35:56;94549.66;;;18.22;55.98
6343;BME280;3204;42.698;23.298;2023-04-20T10:38:33;94552.81;;;18.24;54.76
6343;BME280;3204;42.698;23.298;2023-04-20T10:41:12;94534.19;;;17.91;55.23
6343;BME280;3204;42.698;23.298;2023-04-20T10:43:38;94538.53;;;17.92;55.94
6343;BME280;3204;42.698;23.298;2023-04-20T10:49:00;94541.16;;;18.30;55.67
6343;BME280;3204;42.698;23.298;2023-04-20T10:51:26;94538.22;;;18.20;55.18
6343;BME280;3204;42.698;23.298;2023-04-20T10:54:02;94529.50;;;18.59;55.95
6343;BME280;3204;42.698;23.298;2023-04-20T10:56:41;94544.66;;;19.02;54.74
6343;BME280;3204;42.698;23.298;2023-04-20T10:59:08;94529.28;;;18.45;55.46
6343;BME280;3204;42.698;23.298;2023-04-20T11:01:34;94532.09;;;18.75;55.39
6343;BME280;3204;42.698;23.298;2023-04-20T11:04:00;94533.72;;;18.79;54.51
6343;BME280;3204;42.698;23.298;2023-04-20T11:06:25;94526.75;;;18.59;54.59
6343;BME280;3204;42.698;23.298;2023-04-20T11:08:51;94523.41;;;18.47;54.49
6343;BME280;3204;42.698;23.298;2023-04-20T11:11:22;94525.13;;;18.55;53.66
6343;BME280;3204;42.698;23.298;2023-04-20T11:14:08;94519.56;;;18.77;54.03
6343;BME280;3204;42.698;23.298;2023-04-20T11:16:34;94522.34;;;19.36;52.98
6343;BME280;3204;42.698;23.298;2023-04-20T11:19:00;94516.28;;;19.86;50.51
6343;BME280;3204;42.698;23.298;2023-04-20T11:24:01;94514.63;;;20.65;49.37
6343;BME280;3204;42.698;23.298;2023-04-20T11:26:35;94502.72;;;21.05;48.74
6343;BME280;3204;42.698;23.298;2023-04-20T11:29:01;94504.56;;;21.62;47.47
6343;BME280;3204;42.698;23.298;2023-04-20T11:31:28;94508.56;;;21.68;47.29
6343;BME280;3204;42.698;23.298;2023-04-20T11:33:53;94511.22;;;21.50;46.92
6343;BME280;3204;42.698;23.298;2023-04-20T11:36:21;94493.06;;;21.42;46.95
6343;BME280;3204;42.698;23.298;2023-04-20T11:38:47;94498.53;;;21.28;47.37
6343;BME280;3204;42.698;23.298;2023-04-20T11:41:12;94500.00;;;21.08;47.77
6343;BME280;3204;42.698;23.298;2023-04-20T11:43:37;94493.47;;;20.76;47.66
6343;BME280;3204;42.698;23.298;2023-04-20T11:46:18;94502.56;;;20.80;47.59
6343;BME280;3204;42.698;23.298;2023-04-20T11:48:45;94490.59;;;20.59;48.40
6343;BME280;3204;42.698;23.298;2023-04-20T11:51:12;94499.88;;;20.40;48.42
6343;BME280;3204;42.698;23.298;2023-04-20T11:53:38;94489.75;;;20.08;48.98
6343;BME280;3204;42.698;23.298;2023-04-20T11:56:03;94489.91;;;19.85;50.07
6343;BME280;3204;42.698;23.298;2023-04-20T11:58:29;94490.47;;;19.65;50.52
6343;BME280;3204;42.698;23.298;2023-04-20T12:00:55;94498.03;;;19.38;50.64
6343;BME280;3204;42.698;23.298;2023-04-20T12:03:21;94485.72;;;19.29;51.15
6343;BME280;3204;42.698;23.298;2023-04-20T12:05:46;94488.63;;;19.13;51.58
6343;BME280;3204;42.698;23.298;2023-04-20T12:08:11;94490.75;;;18.68;53.19
6343;BME280;3204;42.698;23.298;2023-04-20T12:10:37;94510.59;;;18.32;53.49
6343;BME280;3204;42.698;23.298;2023-04-20T12:13:04;94507.09;;;17.67;55.22
6343;BME280;3204;42.698;23.298;2023-04-20T12:15:30;94506.84;;;17.53;55.58
6343;BME280;3204;42.698;23.298;2023-04-20T12:17:55;94491.41;;;17.45;56.29
6343;BME280;3204;42.698;23.298;2023-04-20T12:20:21;94504.50;;;17.36;56.60
6343;BME280;3204;42.698;23.298;2023-04-20T12:22:46;94494.84;;;17.42;57.08
6343;BME280;3204;42.698;23.298;2023-04-20T12:25:11;94501.41;;;17.19;57.22
6343;BME280;3204;42.698;23.298;2023-04-20T12:27:37;94500.78;;;17.06;57.59
6343;BME280;3204;42.698;23.298;2023-04-20T12:30:03;94493.81;;;16.93;57.82
6343;BME280;3204;42.698;23.298;2023-04-20T12:32:28;94488.94;;;17.02;57.39
6343;BME280;3204;42.698;23.298;2023-04-20T12:34:54;94483.00;;;17.00;57.09
6343;BME280;3204;42.698;23.298;2023-04-20T12:37:20;94484.09;;;17.15;57.07
6343;BME280;3204;42.698;23.298;2023-04-20T12:39:45;94484.25;;;17.22;56.67
6343;BME280;3204;42.698;23.298;2023-04-20T12:42:11;94477.53;;;17.19;57.10
6343;BME280;3204;42.698;23.298;2023-04-20T12:44:36;94470.56;;;17.22;57.37
6343;BME280;3204;42.698;23.298;2023-04-20T12:47:01;94461.69;;;17.70;57.42
6343;BME280;3204;42.698;23.298;2023-04-20T12:49:27;94474.81;;;18.28;55.87
6343;BME280;3204;42.698;23.298;2023-04-20T12:51:53;94469.41;;;18.09;56.58
6343;BME280;3204;42.698;23.298;2023-04-20T12:54:19;94471.72;;;18.52;55.63
6343;BME280;3204;42.698;23.298;2023-04-20T12:56:44;94472.16;;;18.32;54.37
6343;BME280;3204;42.698;23.298;2023-04-20T12:59:10;94464.41;;;18.15;55.14
6343;BME280;3204;42.698;23.298;2023-04-20T13:01:36;94469.53;;;18.16;55.02
6343;BME280;3204;42.698;23.298;2023-04-20T13:04:02;94471.47;;;18.16;55.11
6343;BME280;3204;42.698;23.298;2023-04-20T13:06:27;94465.69;;;17.98;56.01
6343;BME280;3204;42.698;23.298;2023-04-20T13:08:52;94464.22;;;18.04;55.81
6343;BME280;3204;42.698;23.298;2023-04-20T13:11:18;94470.81;;;18.22;55.77